Time;durP1;ratioP1;P1;durP2;ratioP2;P2;SDS_P1;SDS_P2;PMS_P1;PMS_P2;Temp;Humidity;BMP_temperature;BMP_pressure;BME280_temperature;BME280_humidity;BME280_pressure;Samples;Min_cycle;Max_cycle;Signal;HPM_P1;HPM_P2
2023/03/05 00:01:43;;;;;;;;;;;;;;;4.81;97.50;92918.75;5085962;28;19912;-50
2023/03/05 00:04:09;;;;;;;;;;;;;;;4.76;97.79;92914.84;5095519;28;20272;-50
2023/03/05 00:06:35;;;;;;;;;;;;;;;4.81;97.68;92916.72;5113702;27;19967;-51
2023/03/05 00:09:00;;;;;;;;;;;;;;;5.05;96.81;92913.81;5089290;28;19988;-52
2023/03/05 00:11:28;;;;;;;;;;;;;;;5.03;96.41;92907.38;5102159;28;20562;-52
2023/03/05 00:13:54;;;;;;;;;;;;;;;5.01;96.77;92905.19;5094657;28;19916;-54
2023/03/05 00:16:20;;;;;;;;;;;;;;;5.04;95.99;92906.88;5090257;28;19916;-52
2023/03/05 00:18:45;;;;;;;;;;;;;;;4.96;95.39;92903.28;5090824;28;20506;-53
2023/03/05 00:21:17;;;;;;;;;;;;;;;5.11;94.54;92903.47;5093676;28;19923;-52
2023/03/05 00:23:42;;;;;;;;;;;;;;;5.04;93.68;92904.13;5095162;28;20353;-53
2023/03/05 00:26:07;;;;;;;;;;;;;;;4.88;94.63;92902.44;5082441;28;19919;-52
2023/03/05 00:28:32;;;;;;;;;;;;;;;4.96;95.22;92899.81;5089339;28;19916;-54
2023/03/05 00:30:58;;;;;;;;;;;;;;;5.09;94.49;92895.06;5092598;28;19918;-51
2023/03/05 00:33:24;;;;;;;;;;;;;;;4.84;95.41;92893.06;5096187;28;19916;-53
2023/03/05 00:35:49;;;;;;;;;;;;;;;4.73;96.85;92891.28;5091440;28;19999;-52
2023/03/05 00:38:14;;;;;;;;;;;;;;;4.68;98.42;92885.91;5097823;28;19999;-51
2023/03/05 00:40:40;;;;;;;;;;;;;;;4.84;97.45;92876.66;5099248;28;19916;-50
2023/03/05 00:43:05;;;;;;;;;;;;;;;5.00;95.85;92875.63;5100098;28;19984;-52
2023/03/05 00:45:31;;;;;;;;;;;;;;;4.88;96.12;92879.81;5091756;28;19920;-53
2023/03/05 00:47:56;;;;;;;;;;;;;;;4.79;97.25;92880.97;5095489;28;19966;-52
2023/03/05 00:50:21;;;;;;;;;;;;;;;4.80;96.96;92876.97;5092882;28;19919;-50
2023/03/05 00:52:47;;;;;;;;;;;;;;;5.01;95.54;92866.88;5099442;28;19939;-53
2023/03/05 00:55:12;;;;;;;;;;;;;;;5.05;93.91;92872.03;5106213;28;20303;-51
2023/03/05 00:57:37;;;;;;;;;;;;;;;4.96;93.89;92864.25;5099311;28;20012;-49
2023/03/05 01:00:03;;;;;;;;;;;;;;;4.91;94.96;92870.56;5086642;28;19926;-51
2023/03/05 01:02:28;;;;;;;;;;;;;;;4.84;94.39;92852.78;5085414;28;19916;-54
2023/03/05 01:04:54;;;;;;;;;;;;;;;4.75;95.26;92860.66;5085243;28;19920;-53
2023/03/05 01:07:19;;;;;;;;;;;;;;;4.79;95.27;92861.06;5092558;28;19924;-52
2023/03/05 01:09:44;;;;;;;;;;;;;;;4.90;95.55;92861.63;5092425;28;19991;-50
2023/03/05 01:12:09;;;;;;;;;;;;;;;4.89;94.36;92862.88;5089543;28;19934;-49
2023/03/05 01:14:35;;;;;;;;;;;;;;;4.91;95.14;92867.81;5093581;28;20327;-52
2023/03/05 01:17:01;;;;;;;;;;;;;;;4.80;95.44;92860.56;5093300;28;19934;-51
2023/03/05 01:19:26;;;;;;;;;;;;;;;4.73;96.19;92861.19;5089409;28;19915;-50
2023/03/05 01:21:51;;;;;;;;;;;;;;;4.88;95.40;92864.13;5084541;28;19916;-50
2023/03/05 01:24:17;;;;;;;;;;;;;;;4.79;94.90;92861.06;5089389;28;20427;-49
2023/03/05 01:26:42;;;;;;;;;;;;;;;4.67;96.59;92862.56;5091657;28;20362;-49
2023/03/05 01:29:07;;;;;;;;;;;;;;;4.53;97.40;92848.13;5095288;28;20506;-50
2023/03/05 01:31:32;;;;;;;;;;;;;;;4.44;97.85;92845.81;5086942;28;20400;-50
2023/03/05 01:33:59;;;;;;;;;;;;;;;4.33;98.87;92852.19;5096526;28;20289;-51
2023/03/05 01:36:24;;;;;;;;;;;;;;;4.23;98.83;92850.38;5096046;28;20453;-51
2023/03/05 01:38:50;;;;;;;;;;;;;;;4.20;99.24;92846.69;5093017;28;19916;-50
2023/03/05 01:41:15;;;;;;;;;;;;;;;4.01;99.65;92843.28;5095064;28;20284;-49
2023/03/05 01:43:41;;;;;;;;;;;;;;;4.24;98.24;92841.69;5091562;28;19913;-49
2023/03/05 01:46:25;;;;;;;;;;;;;;;4.06;98.40;92853.41;5100508;28;19918;-50
2023/03/05 01:48:55;;;;;;;;;;;;;;;4.05;99.81;92846.44;5092274;28;19934;-50
2023/03/05 01:51:21;;;;;;;;;;;;;;;4.03;99.84;92854.44;5073677;28;19916;-49
2023/03/05 01:53:47;;;;;;;;;;;;;;;4.05;100.00;92846.44;5115902;27;19912;-50
2023/03/05 01:56:12;;;;;;;;;;;;;;;4.04;100.00;92852.44;5105105;28;19912;-52
2023/03/05 01:58:38;;;;;;;;;;;;;;;4.13;100.00;92847.34;5085577;28;19912;-49
2023/03/05 02:01:04;;;;;;;;;;;;;;;3.99;100.00;92845.81;5100505;28;20002;-50
2023/03/05 02:03:29;;;;;;;;;;;;;;;4.06;100.00;92847.94;5091450;28;20039;-49
2023/03/05 02:05:54;;;;;;;;;;;;;;;4.02;100.00;92844.78;5117127;27;19915;-49
2023/03/05 02:08:20;;;;;;;;;;;;;;;4.22;99.74;92840.75;5093923;28;19955;-52
2023/03/05 02:10:47;;;;;;;;;;;;;;;4.28;98.24;92838.63;5106771;27;19949;-51
2023/03/05 02:13:14;;;;;;;;;;;;;;;4.09;98.98;92835.25;5088397;28;19980;-51
2023/03/05 02:15:39;;;;;;;;;;;;;;;4.05;99.71;92843.00;5101726;28;19916;-50
2023/03/05 02:18:05;;;;;;;;;;;;;;;4.01;99.88;92839.81;5106044;28;19915;-49
2023/03/05 02:20:42;;;;;;;;;;;;;;;3.96;100.00;92841.41;5099122;28;19931;-50
2023/03/05 02:23:07;;;;;;;;;;;;;;;3.81;100.00;92828.22;5102419;28;19962;-49
2023/03/05 02:25:33;;;;;;;;;;;;;;;4.25;99.65;92839.69;5098032;28;19959;-50
2023/03/05 02:28:01;;;;;;;;;;;;;;;4.27;98.37;92845.34;5108212;28;20406;-51
2023/03/05 02:30:26;;;;;;;;;;;;;;;4.11;99.24;92849.84;5106828;28;19916;-49
2023/03/05 02:32:51;;;;;;;;;;;;;;;3.81;100.00;92841.16;5100480;28;19916;-51
2023/03/05 02:35:17;;;;;;;;;;;;;;;3.75;100.00;92841.22;5104023;28;19916;-50
2023/03/05 02:37:42;;;;;;;;;;;;;;;3.63;100.00;92841.91;5096349;28;19912;-50
2023/03/05 02:40:08;;;;;;;;;;;;;;;3.66;100.00;92833.41;5097977;28;19915;-50
2023/03/05 02:42:34;;;;;;;;;;;;;;;3.57;100.00;92839.25;5092914;28;19912;-49
2023/03/05 02:45:00;;;;;;;;;;;;;;;3.55;100.00;92838.31;5101960;28;19937;-51
2023/03/05 02:47:25;;;;;;;;;;;;;;;3.53;100.00;92849.00;5101330;28;19919;-51
2023/03/05 02:49:50;;;;;;;;;;;;;;;3.54;100.00;92845.75;5092791;28;19922;-50
2023/03/05 02:52:16;;;;;;;;;;;;;;;3.65;100.00;92839.41;5099931;28;19978;-51
2023/03/05 02:54:41;;;;;;;;;;;;;;;3.84;100.00;92840.09;5106481;28;20010;-50
2023/03/05 02:57:06;;;;;;;;;;;;;;;3.98;100.00;92844.34;5084850;28;20440;-51
2023/03/05 02:59:32;;;;;;;;;;;;;;;4.07;100.00;92841.22;5103841;28;19918;-51
2023/03/05 03:01:57;;;;;;;;;;;;;;;3.99;100.00;92840.34;5104380;28;19943;-53
2023/03/05 03:04:22;;;;;;;;;;;;;;;4.13;100.00;92841.13;5092765;28;20456;-50
2023/03/05 03:06:47;;;;;;;;;;;;;;;4.00;100.00;92830.91;5101655;28;20002;-50
2023/03/05 03:09:13;;;;;;;;;;;;;;;3.97;100.00;92831.94;5089561;28;19920;-51
2023/03/05 03:11:38;;;;;;;;;;;;;;;3.86;100.00;92832.13;5097563;28;19923;-51
2023/03/05 03:14:03;;;;;;;;;;;;;;;3.83;100.00;92830.44;5096868;28;19918;-50
2023/03/05 03:16:28;;;;;;;;;;;;;;;3.80;100.00;92834.94;5095100;28;19947;-51
2023/03/05 03:18:54;;;;;;;;;;;;;;;3.87;100.00;92833.59;5090344;28;19912;-51
2023/03/05 03:21:20;;;;;;;;;;;;;;;3.91;100.00;92839.50;5090739;28;20419;-51
2023/03/05 03:23:46;;;;;;;;;;;;;;;4.08;100.00;92839.22;5099268;28;19953;-51
2023/03/05 03:26:11;;;;;;;;;;;;;;;3.92;100.00;92838.22;5080696;28;19915;-50
2023/03/05 03:28:36;;;;;;;;;;;;;;;3.99;100.00;92836.88;5087165;28;19920;-51
2023/03/05 03:31:01;;;;;;;;;;;;;;;4.09;100.00;92837.97;5100283;28;20365;-50
2023/03/05 03:33:27;;;;;;;;;;;;;;;4.09;100.00;92835.25;5091414;28;19920;-49
2023/03/05 03:35:52;;;;;;;;;;;;;;;3.93;100.00;92833.50;5086006;28;19923;-49
2023/03/05 03:38:17;;;;;;;;;;;;;;;3.98;100.00;92833.44;5087271;28;20034;-51
2023/03/05 03:40:43;;;;;;;;;;;;;;;4.00;100.00;92839.09;5092362;28;19919;-51
2023/03/05 03:43:08;;;;;;;;;;;;;;;3.99;100.00;92837.63;5091251;28;19912;-49
2023/03/05 03:45:33;;;;;;;;;;;;;;;4.03;100.00;92837.34;5094392;28;19969;-51
2023/03/05 03:47:59;;;;;;;;;;;;;;;4.16;100.00;92840.81;5092144;28;20343;-51
2023/03/05 03:50:24;;;;;;;;;;;;;;;4.17;100.00;92841.56;5090779;28;19923;-51
2023/03/05 03:52:50;;;;;;;;;;;;;;;4.23;100.00;92842.94;5100495;28;20395;-50
2023/03/05 03:55:15;;;;;;;;;;;;;;;4.27;100.00;92835.16;5089685;28;19916;-49
2023/03/05 03:57:42;;;;;;;;;;;;;;;4.36;99.98;92842.97;5089863;28;19916;-50
2023/03/05 04:00:09;;;;;;;;;;;;;;;4.42;99.76;92834.66;5095107;28;19916;-51
2023/03/05 04:02:34;;;;;;;;;;;;;;;4.47;98.26;92840.03;5103122;28;19915;-51
2023/03/05 04:04:59;;;;;;;;;;;;;;;4.47;98.23;92839.28;5095754;28;20406;-50
2023/03/05 04:07:24;;;;;;;;;;;;;;;4.41;98.09;92827.72;5094973;28;19978;-51
2023/03/05 04:09:50;;;;;;;;;;;;;;;4.49;98.21;92831.31;5093418;28;20301;-50
2023/03/05 04:12:17;;;;;;;;;;;;;;;4.41;97.55;92828.47;5100456;28;19919;-50
2023/03/05 04:14:45;;;;;;;;;;;;;;;4.43;97.96;92833.41;5098791;28;20029;-49
2023/03/05 04:17:10;;;;;;;;;;;;;;;4.39;98.08;92841.19;5089113;28;19916;-50
2023/03/05 04:19:36;;;;;;;;;;;;;;;4.47;98.24;92829.09;5090488;28;19950;-50
2023/03/05 04:22:01;;;;;;;;;;;;;;;4.43;97.98;92831.41;5101304;28;19958;-50
2023/03/05 04:24:26;;;;;;;;;;;;;;;4.47;97.52;92829.09;5093185;28;19917;-50
2023/03/05 04:26:51;;;;;;;;;;;;;;;4.25;98.50;92826.00;5096529;28;20569;-50
2023/03/05 04:29:17;;;;;;;;;;;;;;;4.14;99.14;92832.41;5099476;28;19920;-51
2023/03/05 04:31:42;;;;;;;;;;;;;;;4.31;99.01;92830.13;5094432;28;19912;-51
2023/03/05 04:34:07;;;;;;;;;;;;;;;4.28;98.62;92825.72;5108289;28;19993;-49
2023/03/05 04:36:33;;;;;;;;;;;;;;;4.25;98.97;92828.75;5095719;28;20022;-50
2023/03/05 04:38:58;;;;;;;;;;;;;;;4.17;99.59;92827.91;5102193;28;19916;-50
2023/03/05 04:41:23;;;;;;;;;;;;;;;4.29;99.49;92826.44;5090962;28;19919;-49
2023/03/05 04:43:48;;;;;;;;;;;;;;;4.28;98.88;92828.44;5098533;28;20354;-52
2023/03/05 04:46:14;;;;;;;;;;;;;;;4.39;98.43;92830.25;5095794;28;19919;-50
2023/03/05 04:48:39;;;;;;;;;;;;;;;4.38;98.65;92826.78;5088748;28;19970;-50
2023/03/05 04:51:04;;;;;;;;;;;;;;;4.34;98.90;92828.34;5091893;28;19912;-49
2023/03/05 04:53:30;;;;;;;;;;;;;;;4.32;98.51;92828.88;5099412;28;19912;-51
2023/03/05 04:55:55;;;;;;;;;;;;;;;4.32;98.69;92830.88;5090714;28;20423;-50
2023/03/05 04:58:20;;;;;;;;;;;;;;;4.27;99.60;92835.16;5096588;28;19918;-49
2023/03/05 05:00:46;;;;;;;;;;;;;;;4.37;98.38;92833.53;5094677;28;19912;-50
2023/03/05 05:03:11;;;;;;;;;;;;;;;4.39;98.34;92833.72;5102888;28;20026;-51
2023/03/05 05:05:36;;;;;;;;;;;;;;;4.57;97.80;92823.94;5098350;28;19916;-50
2023/03/05 05:08:01;;;;;;;;;;;;;;;4.41;97.16;92820.28;5098528;28;20018;-50
2023/03/05 05:10:27;;;;;;;;;;;;;;;4.33;97.76;92827.59;5095318;28;19920;-50
2023/03/05 05:12:52;;;;;;;;;;;;;;;4.48;97.32;92825.09;5104412;28;19919;-51
2023/03/05 05:15:18;;;;;;;;;;;;;;;4.41;97.18;92828.47;5091837;28;20368;-51
2023/03/05 05:17:43;;;;;;;;;;;;;;;4.47;97.17;92840.03;5089617;28;19912;-51
2023/03/05 05:20:10;;;;;;;;;;;;;;;4.43;96.94;92836.88;5097211;28;20529;-52
2023/03/05 05:22:35;;;;;;;;;;;;;;;4.57;95.84;92838.34;5080142;28;19998;-51
2023/03/05 05:25:01;;;;;;;;;;;;;;;4.52;95.87;92844.69;5078335;28;20385;-49
2023/03/05 05:27:26;;;;;;;;;;;;;;;4.46;95.88;92840.56;5097506;28;19920;-50
2023/03/05 05:29:51;;;;;;;;;;;;;;;4.39;97.60;92841.94;5098632;28;19912;-50
2023/03/05 05:32:17;;;;;;;;;;;;;;;4.15;98.64;92842.09;5096623;28;20012;-51
2023/03/05 05:34:43;;;;;;;;;;;;;;;4.19;98.38;92839.03;5096690;28;19998;-51
2023/03/05 05:37:08;;;;;;;;;;;;;;;4.09;98.18;92841.44;5098761;28;20352;-50
2023/03/05 05:39:34;;;;;;;;;;;;;;;4.09;99.09;92841.44;5095679;28;19932;-50
2023/03/05 05:41:59;;;;;;;;;;;;;;;4.28;98.41;92842.13;5092576;28;19982;-50
2023/03/05 05:44:24;;;;;;;;;;;;;;;4.52;96.35;92844.69;5099506;28;19935;-49
2023/03/05 05:46:49;;;;;;;;;;;;;;;4.49;96.15;92847.72;5089965;28;19961;-49
2023/03/05 05:49:15;;;;;;;;;;;;;;;4.61;95.73;92838.78;5089136;28;19924;-50
2023/03/05 05:51:40;;;;;;;;;;;;;;;4.57;94.19;92854.00;5094829;28;19916;-50
2023/03/05 05:54:05;;;;;;;;;;;;;;;4.52;94.90;92846.66;5091861;28;19968;-51
2023/03/05 05:56:31;;;;;;;;;;;;;;;4.72;95.06;92856.97;5093100;28;19923;-49
2023/03/05 05:58:56;;;;;;;;;;;;;;;4.92;94.25;92853.63;5090597;28;19976;-50
2023/03/05 06:01:22;;;;;;;;;;;;;;;5.25;91.99;92854.97;5094011;28;19919;-50
2023/03/05 06:03:48;;;;;;;;;;;;;;;5.61;89.31;92855.94;5104682;28;20414;-49
2023/03/05 06:06:14;;;;;;;;;;;;;;;5.52;88.08;92858.41;5093690;28;19974;-50
2023/03/05 06:08:40;;;;;;;;;;;;;;;5.73;87.23;92859.16;5090125;28;19932;-52
2023/03/05 06:11:05;;;;;;;;;;;;;;;5.67;87.13;92862.03;5089346;28;19995;-51
2023/03/05 06:13:31;;;;;;;;;;;;;;;5.79;86.88;92866.00;5104378;28;19912;-50
2023/03/05 06:15:57;;;;;;;;;;;;;;;5.87;87.03;92866.84;5097623;28;19912;-50
2023/03/05 06:18:22;;;;;;;;;;;;;;;6.15;86.36;92866.19;5098589;28;19916;-50
2023/03/05 06:20:57;;;;;;;;;;;;;;;6.20;86.46;92867.31;5098239;28;19918;-50
2023/03/05 06:23:23;;;;;;;;;;;;;;;6.29;85.16;92866.88;5092669;28;19916;-50
2023/03/05 06:25:48;;;;;;;;;;;;;;;6.11;85.62;92871.25;5091725;28;19919;-50
2023/03/05 06:28:14;;;;;;;;;;;;;;;6.21;85.84;92866.06;5091135;28;19977;-50
2023/03/05 06:30:39;;;;;;;;;;;;;;;6.52;84.37;92873.28;5097404;28;19916;-50
2023/03/05 06:33:05;;;;;;;;;;;;;;;6.59;83.89;92861.63;5105501;28;19912;-51
2023/03/05 06:35:31;;;;;;;;;;;;;;;7.70;80.09;92864.09;5103604;28;19985;-51
2023/03/05 06:37:56;;;;;;;;;;;;;;;8.18;75.84;92868.63;5097175;28;19916;-50
2023/03/05 06:40:21;;;;;;;;;;;;;;;9.49;72.30;92873.00;5098073;28;19916;-51
2023/03/05 06:42:46;;;;;;;;;;;;;;;10.55;63.47;92861.47;5099651;28;19916;-52
2023/03/05 06:45:12;;;;;;;;;;;;;;;11.36;60.25;92869.63;5092301;28;19997;-51
2023/03/05 06:47:37;;;;;;;;;;;;;;;12.57;57.07;92861.91;5090545;28;20412;-52
2023/03/05 06:50:02;;;;;;;;;;;;;;;13.36;55.32;92868.63;5096112;28;20434;-49
2023/03/05 06:52:28;;;;;;;;;;;;;;;12.58;56.27;92864.09;5095941;28;19923;-50
2023/03/05 06:54:54;;;;;;;;;;;;;;;14.20;49.20;92872.03;5090670;28;20400;-50
2023/03/05 06:57:20;;;;;;;;;;;;;;;13.54;48.82;92867.91;5092984;28;19920;-49
2023/03/05 06:59:45;;;;;;;;;;;;;;;12.12;53.45;92868.81;5102942;28;19923;-50
2023/03/05 07:02:12;;;;;;;;;;;;;;;10.94;58.44;92868.91;5098881;28;19943;-54
2023/03/05 07:04:37;;;;;;;;;;;;;;;11.89;56.29;92871.84;5091252;28;20011;-48
2023/03/05 07:07:03;;;;;;;;;;;;;;;10.89;57.72;92869.88;5102217;28;20015;-52
2023/03/05 07:09:29;;;;;;;;;;;;;;;11.75;57.34;92870.72;5103847;28;19915;-50
2023/03/05 07:11:54;;;;;;;;;;;;;;;12.18;55.92;92861.69;5101547;28;19916;-52
2023/03/05 07:14:20;;;;;;;;;;;;;;;11.77;56.29;92865.34;5102350;28;20322;-51
2023/03/05 07:16:45;;;;;;;;;;;;;;;11.79;56.87;92873.81;5102103;28;19912;-51
2023/03/05 07:19:10;;;;;;;;;;;;;;;12.23;55.23;92871.06;5104714;28;20492;-52
2023/03/05 07:21:36;;;;;;;;;;;;;;;12.14;54.71;92875.22;5103748;28;20011;-50
2023/03/05 07:24:01;;;;;;;;;;;;;;;12.17;54.17;92865.06;5096667;28;19963;-49
2023/03/05 07:26:27;;;;;;;;;;;;;;;11.87;54.29;92863.38;5093151;28;19912;-50
2023/03/05 07:28:52;;;;;;;;;;;;;;;11.73;55.85;92859.50;5085557;28;19924;-50
2023/03/05 07:31:25;;;;;;;;;;;;;;;11.50;55.48;92858.97;5087349;28;19943;-47
2023/03/05 07:33:51;;;;;;;;;;;;;;;11.55;56.47;92855.22;5093211;28;20456;-50
2023/03/05 07:36:16;;;;;;;;;;;;;;;11.39;57.43;92862.94;5084248;28;19917;-50
2023/03/05 07:38:42;;;;;;;;;;;;;;;11.01;57.63;92859.81;5083595;28;19946;-51
2023/03/05 07:41:08;;;;;;;;;;;;;;;10.42;58.96;92862.47;5091699;28;20395;-49
2023/03/05 07:43:33;;;;;;;;;;;;;;;9.80;61.01;92863.34;5092473;28;19920;-50
2023/03/05 07:45:59;;;;;;;;;;;;;;;9.68;61.36;92867.78;5095289;28;19940;-52
2023/03/05 07:48:24;;;;;;;;;;;;;;;9.90;61.82;92861.44;5058690;28;20381;-52
2023/03/05 07:50:49;;;;;;;;;;;;;;;10.11;61.09;92855.69;5089037;28;19939;-49
2023/03/05 07:53:15;;;;;;;;;;;;;;;10.19;60.60;92856.38;5098412;28;19912;-50
2023/03/05 07:55:41;;;;;;;;;;;;;;;10.31;58.85;92860.16;5089198;28;19932;-50
2023/03/05 07:58:06;;;;;;;;;;;;;;;10.73;59.09;92863.00;5091597;28;19917;-50
2023/03/05 08:00:31;;;;;;;;;;;;;;;11.24;58.15;92862.38;5100147;28;20383;-50
2023/03/05 08:02:57;;;;;;;;;;;;;;;10.91;56.27;92863.78;5095575;28;19927;-51
2023/03/05 08:05:22;;;;;;;;;;;;;;;10.64;56.57;92866.38;5099663;28;20037;-49
2023/03/05 08:07:47;;;;;;;;;;;;;;;10.70;57.72;92864.13;5091931;28;19928;-50
2023/03/05 08:10:13;;;;;;;;;;;;;;;10.85;58.62;92861.22;5093034;28;20394;-51
2023/03/05 08:12:38;;;;;;;;;;;;;;;10.32;59.00;92864.38;5088854;28;19921;-50
2023/03/05 08:15:03;;;;;;;;;;;;;;;9.56;60.44;92869.50;5090791;28;20631;-51
2023/03/05 08:17:29;;;;;;;;;;;;;;;9.81;60.79;92866.84;5088918;28;19927;-50
2023/03/05 08:19:57;;;;;;;;;;;;;;;9.78;61.94;92870.69;5090047;28;20468;-53
2023/03/05 08:22:22;;;;;;;;;;;;;;;9.75;61.37;92866.28;5087127;28;20379;-51
2023/03/05 08:24:49;;;;;;;;;;;;;;;9.69;61.07;92874.03;5093738;28;19926;-51
2023/03/05 08:27:14;;;;;;;;;;;;;;;9.25;62.23;92876.34;5087276;28;19942;-50
2023/03/05 08:29:39;;;;;;;;;;;;;;;9.41;62.77;92871.53;5085347;28;19916;-50
2023/03/05 08:32:05;;;;;;;;;;;;;;;9.22;62.55;92871.22;5089232;28;19934;-51
2023/03/05 08:34:30;;;;;;;;;;;;;;;9.45;61.16;92871.91;5092159;28;19916;-51
2023/03/05 08:36:55;;;;;;;;;;;;;;;9.46;61.84;92867.88;5028982;28;19925;-51
2023/03/05 08:39:21;;;;;;;;;;;;;;;9.47;61.26;92870.06;5022729;28;19971;-51
2023/03/05 08:41:46;;;;;;;;;;;;;;;9.75;60.67;92863.53;5014458;28;19922;-51
2023/03/05 08:44:12;;;;;;;;;;;;;;;10.10;60.45;92856.19;5012698;28;19921;-50
2023/03/05 08:46:40;;;;;;;;;;;;;;;10.52;59.26;92863.34;5020443;28;19925;-50
2023/03/05 08:49:06;;;;;;;;;;;;;;;10.30;58.02;92853.19;5017721;28;20446;-51
2023/03/05 08:51:31;;;;;;;;;;;;;;;10.20;58.40;92851.59;5017987;28;20003;-51
2023/03/05 08:53:57;;;;;;;;;;;;;;;10.11;56.64;92849.44;5017621;28;20465;-49
2023/03/05 08:56:24;;;;;;;;;;;;;;;9.26;61.10;92852.31;5019833;28;19921;-50
2023/03/05 08:58:51;;;;;;;;;;;;;;;9.63;59.34;92851.47;5015207;28;20405;-49
2023/03/05 09:01:16;;;;;;;;;;;;;;;9.32;60.86;92853.56;5014770;28;20380;-51
2023/03/05 09:03:41;;;;;;;;;;;;;;;9.20;61.73;92851.78;5016120;28;20427;-50
2023/03/05 09:06:07;;;;;;;;;;;;;;;8.64;62.71;92842.66;5014207;28;19931;-50
2023/03/05 09:08:33;;;;;;;;;;;;;;;9.00;62.44;92845.94;5017780;28;19928;-49
2023/03/05 09:11:00;;;;;;;;;;;;;;;9.08;61.77;92843.91;5020632;28;19921;-50
2023/03/05 09:13:25;;;;;;;;;;;;;;;9.07;61.20;92847.91;5014443;28;19922;-53
2023/03/05 09:15:55;;;;;;;;;;;;;;;8.70;61.92;92842.47;5015706;28;19924;-50
2023/03/05 09:18:20;;;;;;;;;;;;;;;8.29;63.35;92846.31;5014843;28;19952;-51
2023/03/05 09:20:45;;;;;;;;;;;;;;;8.21;64.11;92845.53;5016239;28;20014;-50
2023/03/05 09:23:11;;;;;;;;;;;;;;;8.20;63.56;92841.31;5018747;28;19921;-49
2023/03/05 09:25:38;;;;;;;;;;;;;;;8.46;64.52;92841.00;5019664;28;20324;-51
2023/03/05 09:28:03;;;;;;;;;;;;;;;8.36;63.74;92846.31;5019844;28;19925;-51
2023/03/05 09:30:29;;;;;;;;;;;;;;;8.45;62.44;92842.28;5019057;28;19936;-50
2023/03/05 09:32:54;;;;;;;;;;;;;;;8.26;64.45;92830.91;5022155;28;19917;-50
2023/03/05 09:35:19;;;;;;;;;;;;;;;8.38;63.87;92834.78;5024707;28;20078;-51
2023/03/05 09:37:45;;;;;;;;;;;;;;;8.56;62.93;92827.41;5019551;28;19925;-51
2023/03/05 09:40:12;;;;;;;;;;;;;;;8.55;63.67;92826.72;5017557;28;20301;-50
2023/03/05 09:42:42;;;;;;;;;;;;;;;8.55;62.75;92823.97;5025428;28;19928;-53
2023/03/05 09:45:17;;;;;;;;;;;;;;;8.64;62.33;92826.13;5021246;28;19925;-50
2023/03/05 09:47:42;;;;;;;;;;;;;;;8.57;63.59;92826.88;5020271;28;20369;-49
2023/03/05 09:50:14;;;;;;;;;;;;;;;8.57;63.41;92826.88;5018802;28;19971;-50
2023/03/05 09:52:44;;;;;;;;;;;;;;;8.50;63.43;92822.13;5018014;28;20008;-50
2023/03/05 09:55:21;;;;;;;;;;;;;;;8.60;63.12;92820.28;5019500;28;19963;-54
2023/03/05 09:57:51;;;;;;;;;;;;;;;8.61;63.34;92816.25;5015475;28;19925;-46
2023/03/05 10:00:22;;;;;;;;;;;;;;;8.73;62.55;92817.31;5021962;28;19921;-46
2023/03/05 10:02:49;;;;;;;;;;;;;;;8.91;62.16;92809.97;5012597;28;20480;-45
2023/03/05 10:05:17;;;;;;;;;;;;;;;9.05;61.28;92809.19;5018790;28;20016;-46
2023/03/05 10:07:43;;;;;;;;;;;;;;;9.02;60.75;92807.56;5025814;28;19925;-46
2023/03/05 10:10:12;;;;;;;;;;;;;;;9.20;60.27;92802.94;5023231;28;19928;-45
2023/03/05 10:12:47;;;;;;;;;;;;;;;9.37;58.91;92810.59;5028209;28;19921;-46
2023/03/05 10:15:27;;;;;;;;;;;;;;;9.70;58.86;92801.09;5016104;28;20356;-54
2023/03/05 10:18:12;;;;;;;;;;;;;;;9.93;57.92;92798.94;5026048;28;19924;-54
2023/03/05 10:20:48;;;;;;;;;;;;;;;9.82;60.05;92799.38;5024683;28;20005;-53
2023/03/05 10:23:16;;;;;;;;;;;;;;;9.73;58.57;92800.69;5021132;28;20508;-53
2023/03/05 10:26:00;;;;;;;;;;;;;;;9.64;58.11;92784.00;5027462;28;19921;-54
2023/03/05 10:28:28;;;;;;;;;;;;;;;9.88;56.58;92797.13;5028325;28;19921;-52
2023/03/05 10:30:57;;;;;;;;;;;;;;;9.78;55.11;92785.25;5023836;28;19997;-53
2023/03/05 10:33:41;;;;;;;;;;;;;;;9.15;55.27;92790.09;5028775;28;19928;-53
2023/03/05 10:36:30;;;;;;;;;;;;;;;8.98;55.33;92787.94;5028738;28;19928;-53
2023/03/05 10:39:16;;;;;;;;;;;;;;;9.03;53.98;92783.53;5022288;28;19913;-54
2023/03/05 10:41:41;;;;;;;;;;;;;;;8.97;53.92;92788.47;5013185;28;20352;-52
2023/03/05 10:44:25;;;;;;;;;;;;;;;9.47;53.48;92778.41;5015440;28;19913;-54
2023/03/05 10:46:50;;;;;;;;;;;;;;;9.47;53.04;92781.16;5028043;28;20393;-54
2023/03/05 10:49:15;;;;;;;;;;;;;;;9.61;52.45;92776.88;5028592;28;19917;-53
2023/03/05 10:51:47;;;;;;;;;;;;;;;9.47;52.94;92778.41;5023230;28;20005;-53
2023/03/05 10:54:24;;;;;;;;;;;;;;;9.33;54.00;92766.16;5023467;28;19917;-54
2023/03/05 10:56:50;;;;;;;;;;;;;;;9.39;54.09;92758.41;5028124;28;19924;-53
2023/03/05 10:59:15;;;;;;;;;;;;;;;9.39;51.77;92753.66;5029689;28;19917;-53
2023/03/05 11:01:40;;;;;;;;;;;;;;;9.55;51.85;92748.81;5027756;28;19912;-53
2023/03/05 11:04:07;;;;;;;;;;;;;;;9.72;51.07;92746.13;5022046;28;19913;-53
2023/03/05 11:06:39;;;;;;;;;;;;;;;9.55;50.81;92740.53;5026131;28;19921;-53
2023/03/05 11:09:20;;;;;;;;;;;;;;;9.79;50.97;92737.06;5025061;28;19932;-51
2023/03/05 11:12:00;;;;;;;;;;;;;;;10.02;51.75;92728.66;5024551;28;19913;-53
2023/03/05 11:14:30;;;;;;;;;;;;;;;10.29;50.77;92724.78;5022380;28;19916;-53
2023/03/05 11:16:55;;;;;;;;;;;;;;;10.07;49.52;92719.44;5017470;28;19924;-53
2023/03/05 11:19:50;;;;;;;;;;;;;;;9.81;50.19;92720.72;5026000;28;19913;-53
2023/03/05 11:22:17;;;;;;;;;;;;;;;9.92;51.10;92714.75;5024822;28;19926;-55
2023/03/05 11:24:45;;;;;;;;;;;;;;;10.00;49.83;92706.44;5022237;28;19917;-53
2023/03/05 11:27:25;;;;;;;;;;;;;;;9.96;52.18;92704.06;5021459;28;20375;-53
2023/03/05 11:29:50;;;;;;;;;;;;;;;9.90;52.36;92698.03;5023430;28;19925;-54
2023/03/05 11:32:23;;;;;;;;;;;;;;;9.76;52.64;92696.84;5025718;28;19913;-52
2023/03/05 11:34:48;;;;;;;;;;;;;;;10.08;50.30;92687.78;5024297;28;19932;-53
2023/03/05 11:37:26;;;;;;;;;;;;;;;10.53;50.57;92682.63;5018504;28;19917;-50
2023/03/05 11:40:09;;;;;;;;;;;;;;;10.90;49.43;92680.03;5019892;28;20315;-53
2023/03/05 11:42:34;;;;;;;;;;;;;;;10.89;49.31;92675.81;5019429;28;19921;-51
2023/03/05 11:44:59;;;;;;;;;;;;;;;11.16;47.72;92668.31;5023212;28;19927;-52
2023/03/05 11:47:30;;;;;;;;;;;;;;;11.42;47.41;92662.81;5019270;28;19921;-50
2023/03/05 11:50:22;;;;;;;;;;;;;;;11.56;45.56;92654.91;5026100;28;19928;-52
2023/03/05 11:52:51;;;;;;;;;;;;;;;11.87;44.17;92655.19;5026213;28;19940;-51
2023/03/05 11:55:21;;;;;;;;;;;;;;;12.26;42.82;92656.06;5018479;28;19922;-51
2023/03/05 11:57:49;;;;;;;;;;;;;;;12.42;42.82;92649.69;5014318;28;19917;-50
2023/03/05 12:00:15;;;;;;;;;;;;;;;11.94;43.55;92638.50;5027741;28;20015;-51
2023/03/05 12:02:41;;;;;;;;;;;;;;;12.27;42.92;92647.19;5023675;28;19975;-51
2023/03/05 12:05:06;;;;;;;;;;;;;;;12.50;40.87;92650.28;5026915;28;19921;-50
2023/03/05 12:07:33;;;;;;;;;;;;;;;12.79;39.85;92639.97;5023968;28;19980;-50
2023/03/05 12:10:00;;;;;;;;;;;;;;;12.39;39.46;92639.06;5027655;28;20000;-49
2023/03/05 12:12:31;;;;;;;;;;;;;;;12.25;41.91;92627.66;5024575;28;19921;-52
2023/03/05 12:14:56;;;;;;;;;;;;;;;12.11;39.18;92635.63;5025573;28;19927;-50
2023/03/05 12:17:27;;;;;;;;;;;;;;;11.82;41.28;92632.06;5028138;28;19913;-50
2023/03/05 12:19:52;;;;;;;;;;;;;;;11.61;40.04;92631.06;5027467;28;19939;-50
2023/03/05 12:22:19;;;;;;;;;;;;;;;11.52;42.29;92628.97;5026726;28;20456;-50
2023/03/05 12:24:44;;;;;;;;;;;;;;;11.25;43.88;92626.19;5017440;28;19921;-50
2023/03/05 12:27:10;;;;;;;;;;;;;;;10.87;42.96;92623.91;5027165;28;19974;-51
2023/03/05 12:29:38;;;;;;;;;;;;;;;11.19;44.11;92615.41;5025749;28;19918;-50
2023/03/05 12:32:05;;;;;;;;;;;;;;;11.05;44.20;92614.31;5020039;28;20088;-50
2023/03/05 12:34:39;;;;;;;;;;;;;;;11.20;43.06;92614.09;5023901;28;19917;-50
2023/03/05 12:37:11;;;;;;;;;;;;;;;11.13;43.29;92614.22;5020704;28;19917;-50
2023/03/05 12:39:43;;;;;;;;;;;;;;;11.20;44.93;92602.31;5023364;28;20381;-51
2023/03/05 12:42:27;;;;;;;;;;;;;;;11.16;42.74;92611.03;5021444;28;19921;-50
2023/03/05 12:45:10;;;;;;;;;;;;;;;11.11;41.92;92606.47;5024689;28;19921;-52
2023/03/05 12:47:42;;;;;;;;;;;;;;;10.73;43.54;92611.00;5024645;28;19928;-50
2023/03/05 12:50:28;;;;;;;;;;;;;;;10.52;43.78;92614.22;5019293;28;20022;-51
2023/03/05 12:52:53;;;;;;;;;;;;;;;10.42;42.61;92603.06;5017049;28;21055;-51